sensor_id;sensor_type;location;lat;lon;timestamp;P1;durP1;ratioP1;P2;durP2;ratioP2
39738;SDS011;25422;48.286;8.484;2022-11-20T00:03:39;11.85;;;8.27;;
39738;SDS011;25422;48.286;8.484;2022-11-20T00:06:05;12.02;;;8.52;;
39738;SDS011;25422;48.286;8.484;2022-11-20T00:08:32;11.50;;;8.70;;
39738;SDS011;25422;48.286;8.484;2022-11-20T00:11:02;12.05;;;8.52;;
39738;SDS011;25422;48.286;8.484;2022-11-20T00:13:38;11.15;;;8.30;;
39738;SDS011;25422;48.286;8.484;2022-11-20T00:16:04;10.40;;;8.43;;
39738;SDS011;25422;48.286;8.484;2022-11-20T00:18:32;10.40;;;8.13;;
39738;SDS011;25422;48.286;8.484;2022-11-20T00:21:05;13.38;;;8.68;;
39738;SDS011;25422;48.286;8.484;2022-11-20T00:23:32;13.13;;;8.93;;
39738;SDS011;25422;48.286;8.484;2022-11-20T00:26:04;13.18;;;9.68;;
39738;SDS011;25422;48.286;8.484;2022-11-20T00:28:32;14.52;;;10.07;;
39738;SDS011;25422;48.286;8.484;2022-11-20T00:31:07;15.00;;;9.73;;
39738;SDS011;25422;48.286;8.484;2022-11-20T00:33:37;10.88;;;8.95;;
39738;SDS011;25422;48.286;8.484;2022-11-20T00:36:03;12.18;;;8.90;;
39738;SDS011;25422;48.286;8.484;2022-11-20T00:38:34;12.20;;;9.13;;
39738;SDS011;25422;48.286;8.484;2022-11-20T00:41:03;12.25;;;8.27;;
39738;SDS011;25422;48.286;8.484;2022-11-20T00:43:30;12.15;;;8.68;;
39738;SDS011;25422;48.286;8.484;2022-11-20T00:45:57;10.05;;;7.57;;
39738;SDS011;25422;48.286;8.484;2022-11-20T00:48:23;10.40;;;7.93;;
39738;SDS011;25422;48.286;8.484;2022-11-20T00:50:48;8.60;;;7.28;;
39738;SDS011;25422;48.286;8.484;2022-11-20T00:53:14;15.15;;;8.32;;
39738;SDS011;25422;48.286;8.484;2022-11-20T00:55:39;10.85;;;8.07;;
39738;SDS011;25422;48.286;8.484;2022-11-20T00:58:05;11.50;;;7.70;;
39738;SDS011;25422;48.286;8.484;2022-11-20T01:00:30;10.43;;;8.48;;
39738;SDS011;25422;48.286;8.484;2022-11-20T01:02:55;14.02;;;7.78;;
39738;SDS011;25422;48.286;8.484;2022-11-20T01:05:21;11.52;;;7.95;;
39738;SDS011;25422;48.286;8.484;2022-11-20T01:07:46;9.85;;;7.78;;
39738;SDS011;25422;48.286;8.484;2022-11-20T01:10:12;9.90;;;7.88;;
39738;SDS011;25422;48.286;8.484;2022-11-20T01:12:37;11.30;;;8.00;;
39738;SDS011;25422;48.286;8.484;2022-11-20T01:15:02;10.93;;;8.00;;
39738;SDS011;25422;48.286;8.484;2022-11-20T01:17:28;22.08;;;11.85;;
39738;SDS011;25422;48.286;8.484;2022-11-20T01:19:53;15.60;;;8.60;;
39738;SDS011;25422;48.286;8.484;2022-11-20T01:22:19;17.85;;;10.13;;
39738;SDS011;25422;48.286;8.484;2022-11-20T01:24:44;34.25;;;14.43;;
39738;SDS011;25422;48.286;8.484;2022-11-20T01:27:10;15.88;;;9.20;;
39738;SDS011;25422;48.286;8.484;2022-11-20T01:29:35;12.27;;;8.93;;
39738;SDS011;25422;48.286;8.484;2022-11-20T01:32:00;9.63;;;7.55;;
39738;SDS011;25422;48.286;8.484;2022-11-20T01:34:26;14.60;;;9.00;;
39738;SDS011;25422;48.286;8.484;2022-11-20T01:36:51;12.77;;;8.90;;
39738;SDS011;25422;48.286;8.484;2022-11-20T01:39:19;11.18;;;8.38;;
39738;SDS011;25422;48.286;8.484;2022-11-20T01:41:47;10.77;;;8.35;;
39738;SDS011;25422;48.286;8.484;2022-11-20T01:47:17;10.18;;;7.72;;
39738;SDS011;25422;48.286;8.484;2022-11-20T01:55:14;10.05;;;8.25;;
39738;SDS011;25422;48.286;8.484;2022-11-20T02:00:10;11.75;;;8.80;;
39738;SDS011;25422;48.286;8.484;2022-11-20T02:02:43;12.23;;;8.35;;
39738;SDS011;25422;48.286;8.484;2022-11-20T02:08:00;12.50;;;8.80;;
39738;SDS011;25422;48.286;8.484;2022-11-20T02:10:28;15.93;;;7.97;;
39738;SDS011;25422;48.286;8.484;2022-11-20T02:12:54;12.93;;;8.27;;
39738;SDS011;25422;48.286;8.484;2022-11-20T02:15:38;21.13;;;10.07;;
39738;SDS011;25422;48.286;8.484;2022-11-20T02:18:05;12.93;;;8.30;;
39738;SDS011;25422;48.286;8.484;2022-11-20T02:20:31;13.10;;;8.55;;
39738;SDS011;25422;48.286;8.484;2022-11-20T02:22:57;12.50;;;8.30;;
39738;SDS011;25422;48.286;8.484;2022-11-20T02:25:26;13.98;;;8.55;;
39738;SDS011;25422;48.286;8.484;2022-11-20T02:27:55;12.13;;;8.70;;
39738;SDS011;25422;48.286;8.484;2022-11-20T02:30:21;12.88;;;8.48;;
39738;SDS011;25422;48.286;8.484;2022-11-20T02:32:46;25.13;;;11.65;;
39738;SDS011;25422;48.286;8.484;2022-11-20T02:37:43;12.80;;;8.90;;
39738;SDS011;25422;48.286;8.484;2022-11-20T02:40:10;18.10;;;10.80;;
39738;SDS011;25422;48.286;8.484;2022-11-20T02:42:36;14.70;;;9.48;;
39738;SDS011;25422;48.286;8.484;2022-11-20T02:45:01;12.93;;;9.02;;
39738;SDS011;25422;48.286;8.484;2022-11-20T02:47:27;20.77;;;13.85;;
39738;SDS011;25422;48.286;8.484;2022-11-20T02:49:53;16.73;;;9.75;;
39738;SDS011;25422;48.286;8.484;2022-11-20T02:52:18;10.48;;;7.93;;
39738;SDS011;25422;48.286;8.484;2022-11-20T02:54:44;9.70;;;6.90;;
39738;SDS011;25422;48.286;8.484;2022-11-20T02:57:09;10.45;;;6.68;;
39738;SDS011;25422;48.286;8.484;2022-11-20T02:59:34;13.15;;;7.60;;
39738;SDS011;25422;48.286;8.484;2022-11-20T03:02:00;9.60;;;6.72;;
39738;SDS011;25422;48.286;8.484;2022-11-20T03:04:25;9.60;;;7.45;;
39738;SDS011;25422;48.286;8.484;2022-11-20T03:06:50;10.45;;;7.55;;
39738;SDS011;25422;48.286;8.484;2022-11-20T03:09:16;11.88;;;8.02;;
39738;SDS011;25422;48.286;8.484;2022-11-20T03:11:41;13.57;;;8.68;;
39738;SDS011;25422;48.286;8.484;2022-11-20T03:14:07;13.90;;;9.07;;
39738;SDS011;25422;48.286;8.484;2022-11-20T03:16:32;13.20;;;8.75;;
39738;SDS011;25422;48.286;8.484;2022-11-20T03:18:58;10.35;;;7.97;;
39738;SDS011;25422;48.286;8.484;2022-11-20T03:21:24;9.65;;;7.70;;
39738;SDS011;25422;48.286;8.484;2022-11-20T03:23:49;11.23;;;7.45;;
39738;SDS011;25422;48.286;8.484;2022-11-20T03:26:19;13.60;;;7.90;;
39738;SDS011;25422;48.286;8.484;2022-11-20T03:28:47;12.68;;;8.45;;
39738;SDS011;25422;48.286;8.484;2022-11-20T03:31:14;13.20;;;9.10;;
39738;SDS011;25422;48.286;8.484;2022-11-20T03:33:41;12.70;;;8.80;;
39738;SDS011;25422;48.286;8.484;2022-11-20T03:36:08;12.43;;;7.97;;
39738;SDS011;25422;48.286;8.484;2022-11-20T03:38:35;13.07;;;8.45;;
39738;SDS011;25422;48.286;8.484;2022-11-20T03:41:02;16.38;;;8.15;;
39738;SDS011;25422;48.286;8.484;2022-11-20T03:43:33;13.07;;;8.05;;
39738;SDS011;25422;48.286;8.484;2022-11-20T03:45:59;9.50;;;7.38;;
39738;SDS011;25422;48.286;8.484;2022-11-20T03:48:24;15.50;;;8.32;;
39738;SDS011;25422;48.286;8.484;2022-11-20T03:50:51;13.48;;;8.40;;
39738;SDS011;25422;48.286;8.484;2022-11-20T03:53:18;11.55;;;7.30;;
39738;SDS011;25422;48.286;8.484;2022-11-20T03:55:43;13.07;;;8.40;;
39738;SDS011;25422;48.286;8.484;2022-11-20T03:58:09;13.27;;;8.63;;
39738;SDS011;25422;48.286;8.484;2022-11-20T04:00:35;12.27;;;8.10;;
39738;SDS011;25422;48.286;8.484;2022-11-20T04:03:01;11.32;;;7.22;;
39738;SDS011;25422;48.286;8.484;2022-11-20T04:05:27;10.85;;;7.40;;
39738;SDS011;25422;48.286;8.484;2022-11-20T04:07:53;10.27;;;7.05;;
39738;SDS011;25422;48.286;8.484;2022-11-20T04:10:18;9.55;;;6.40;;
39738;SDS011;25422;48.286;8.484;2022-11-20T04:12:44;9.68;;;6.93;;
39738;SDS011;25422;48.286;8.484;2022-11-20T04:15:09;11.80;;;7.07;;
39738;SDS011;25422;48.286;8.484;2022-11-20T04:17:34;7.38;;;6.13;;
39738;SDS011;25422;48.286;8.484;2022-11-20T04:20:00;8.73;;;6.72;;
39738;SDS011;25422;48.286;8.484;2022-11-20T04:22:26;6.85;;;6.13;;
39738;SDS011;25422;48.286;8.484;2022-11-20T04:24:51;8.98;;;6.18;;
39738;SDS011;25422;48.286;8.484;2022-11-20T04:27:17;8.32;;;5.60;;
39738;SDS011;25422;48.286;8.484;2022-11-20T04:29:42;7.45;;;5.50;;
39738;SDS011;25422;48.286;8.484;2022-11-20T04:32:07;10.23;;;5.43;;
39738;SDS011;25422;48.286;8.484;2022-11-20T04:34:33;5.80;;;4.75;;
39738;SDS011;25422;48.286;8.484;2022-11-20T04:36:58;8.70;;;5.30;;
39738;SDS011;25422;48.286;8.484;2022-11-20T04:39:24;5.95;;;4.97;;
39738;SDS011;25422;48.286;8.484;2022-11-20T04:41:49;7.13;;;4.90;;
39738;SDS011;25422;48.286;8.484;2022-11-20T04:44:34;6.32;;;4.60;;
39738;SDS011;25422;48.286;8.484;2022-11-20T04:47:00;7.90;;;5.07;;
39738;SDS011;25422;48.286;8.484;2022-11-20T04:49:25;6.57;;;5.03;;
39738;SDS011;25422;48.286;8.484;2022-11-20T04:51:53;6.57;;;5.05;;
39738;SDS011;25422;48.286;8.484;2022-11-20T04:54:18;8.25;;;4.82;;
39738;SDS011;25422;48.286;8.484;2022-11-20T04:56:47;7.20;;;5.20;;
39738;SDS011;25422;48.286;8.484;2022-11-20T04:59:12;6.57;;;5.50;;
39738;SDS011;25422;48.286;8.484;2022-11-20T05:01:38;7.13;;;5.22;;
39738;SDS011;25422;48.286;8.484;2022-11-20T05:04:03;6.32;;;5.07;;
39738;SDS011;25422;48.286;8.484;2022-11-20T05:06:29;5.97;;;4.97;;
39738;SDS011;25422;48.286;8.484;2022-11-20T05:08:54;7.40;;;4.85;;
39738;SDS011;25422;48.286;8.484;2022-11-20T05:11:20;6.25;;;4.50;;
39738;SDS011;25422;48.286;8.484;2022-11-20T05:13:46;5.95;;;4.38;;
39738;SDS011;25422;48.286;8.484;2022-11-20T05:16:14;5.70;;;4.90;;
39738;SDS011;25422;48.286;8.484;2022-11-20T05:18:41;8.77;;;5.32;;
39738;SDS011;25422;48.286;8.484;2022-11-20T05:21:08;9.68;;;5.35;;
39738;SDS011;25422;48.286;8.484;2022-11-20T05:23:35;7.82;;;5.28;;
39738;SDS011;25422;48.286;8.484;2022-11-20T05:26:01;8.05;;;5.90;;
39738;SDS011;25422;48.286;8.484;2022-11-20T05:28:27;8.48;;;5.93;;
39738;SDS011;25422;48.286;8.484;2022-11-20T05:30:54;10.20;;;6.72;;
39738;SDS011;25422;48.286;8.484;2022-11-20T05:33:19;9.77;;;6.30;;
39738;SDS011;25422;48.286;8.484;2022-11-20T05:35:45;10.68;;;7.15;;
39738;SDS011;25422;48.286;8.484;2022-11-20T05:38:11;8.27;;;6.25;;
39738;SDS011;25422;48.286;8.484;2022-11-20T05:40:36;10.77;;;6.82;;
39738;SDS011;25422;48.286;8.484;2022-11-20T05:43:02;16.02;;;6.22;;
39738;SDS011;25422;48.286;8.484;2022-11-20T05:45:27;10.15;;;6.50;;
39738;SDS011;25422;48.286;8.484;2022-11-20T05:47:53;6.35;;;5.22;;
39738;SDS011;25422;48.286;8.484;2022-11-20T05:50:18;7.93;;;6.28;;
39738;SDS011;25422;48.286;8.484;2022-11-20T05:52:44;8.23;;;6.15;;
39738;SDS011;25422;48.286;8.484;2022-11-20T05:55:09;9.43;;;6.15;;
39738;SDS011;25422;48.286;8.484;2022-11-20T05:57:35;9.23;;;5.82;;
39738;SDS011;25422;48.286;8.484;2022-11-20T06:00:01;7.85;;;5.80;;
39738;SDS011;25422;48.286;8.484;2022-11-20T06:02:29;8.30;;;5.90;;
39738;SDS011;25422;48.286;8.484;2022-11-20T06:04:54;7.22;;;5.97;;
39738;SDS011;25422;48.286;8.484;2022-11-20T06:07:20;8.30;;;5.50;;
39738;SDS011;25422;48.286;8.484;2022-11-20T06:09:45;7.13;;;5.28;;
39738;SDS011;25422;48.286;8.484;2022-11-20T06:12:11;8.98;;;5.57;;
39738;SDS011;25422;48.286;8.484;2022-11-20T06:14:36;8.73;;;6.10;;
39738;SDS011;25422;48.286;8.484;2022-11-20T06:17:01;6.18;;;4.68;;
39738;SDS011;25422;48.286;8.484;2022-11-20T06:19:27;4.57;;;3.90;;
39738;SDS011;25422;48.286;8.484;2022-11-20T06:21:52;4.82;;;4.20;;
39738;SDS011;25422;48.286;8.484;2022-11-20T06:24:18;4.53;;;4.05;;
39738;SDS011;25422;48.286;8.484;2022-11-20T06:26:43;5.13;;;3.90;;
39738;SDS011;25422;48.286;8.484;2022-11-20T06:29:09;5.95;;;4.22;;
39738;SDS011;25422;48.286;8.484;2022-11-20T06:31:34;7.55;;;4.18;;
39738;SDS011;25422;48.286;8.484;2022-11-20T06:34:02;4.30;;;3.67;;
39738;SDS011;25422;48.286;8.484;2022-11-20T06:36:30;5.05;;;3.60;;
39738;SDS011;25422;48.286;8.484;2022-11-20T06:38:55;3.80;;;3.40;;
39738;SDS011;25422;48.286;8.484;2022-11-20T06:41:21;4.53;;;3.42;;
39738;SDS011;25422;48.286;8.484;2022-11-20T06:43:47;4.00;;;3.28;;
39738;SDS011;25422;48.286;8.484;2022-11-20T06:46:13;4.95;;;3.50;;
39738;SDS011;25422;48.286;8.484;2022-11-20T06:48:42;7.45;;;5.30;;
39738;SDS011;25422;48.286;8.484;2022-11-20T06:51:08;3.67;;;3.15;;
39738;SDS011;25422;48.286;8.484;2022-11-20T06:53:34;3.47;;;3.17;;
39738;SDS011;25422;48.286;8.484;2022-11-20T06:56:00;3.13;;;2.83;;
39738;SDS011;25422;48.286;8.484;2022-11-20T06:58:29;3.35;;;3.03;;
39738;SDS011;25422;48.286;8.484;2022-11-20T07:00:59;5.70;;;4.03;;
39738;SDS011;25422;48.286;8.484;2022-11-20T07:03:26;4.32;;;3.80;;
39738;SDS011;25422;48.286;8.484;2022-11-20T07:05:51;4.55;;;4.13;;
39738;SDS011;25422;48.286;8.484;2022-11-20T07:08:19;7.40;;;4.85;;
39738;SDS011;25422;48.286;8.484;2022-11-20T07:10:44;6.95;;;5.70;;
39738;SDS011;25422;48.286;8.484;2022-11-20T07:13:09;7.95;;;5.20;;
39738;SDS011;25422;48.286;8.484;2022-11-20T07:15:35;6.32;;;5.07;;
39738;SDS011;25422;48.286;8.484;2022-11-20T07:18:00;5.75;;;4.60;;
39738;SDS011;25422;48.286;8.484;2022-11-20T07:20:26;6.85;;;4.95;;
39738;SDS011;25422;48.286;8.484;2022-11-20T07:22:53;7.22;;;5.50;;
39738;SDS011;25422;48.286;8.484;2022-11-20T07:25:23;7.65;;;5.55;;
39738;SDS011;25422;48.286;8.484;2022-11-20T07:27:49;8.52;;;5.47;;
39738;SDS011;25422;48.286;8.484;2022-11-20T07:30:15;7.20;;;5.38;;
39738;SDS011;25422;48.286;8.484;2022-11-20T07:32:41;5.68;;;5.07;;
39738;SDS011;25422;48.286;8.484;2022-11-20T07:35:06;4.65;;;3.88;;
39738;SDS011;25422;48.286;8.484;2022-11-20T07:37:35;5.68;;;4.55;;
39738;SDS011;25422;48.286;8.484;2022-11-20T07:40:01;5.82;;;4.05;;
39738;SDS011;25422;48.286;8.484;2022-11-20T07:42:27;5.93;;;4.38;;
39738;SDS011;25422;48.286;8.484;2022-11-20T07:44:55;5.80;;;4.00;;
39738;SDS011;25422;48.286;8.484;2022-11-20T07:47:20;5.05;;;4.32;;
39738;SDS011;25422;48.286;8.484;2022-11-20T07:49:46;4.55;;;4.13;;
39738;SDS011;25422;48.286;8.484;2022-11-20T07:52:11;4.78;;;4.13;;
39738;SDS011;25422;48.286;8.484;2022-11-20T07:54:36;5.97;;;4.40;;
39738;SDS011;25422;48.286;8.484;2022-11-20T07:57:02;6.75;;;5.10;;
39738;SDS011;25422;48.286;8.484;2022-11-20T07:59:28;5.18;;;4.47;;
39738;SDS011;25422;48.286;8.484;2022-11-20T08:01:53;5.90;;;4.30;;
39738;SDS011;25422;48.286;8.484;2022-11-20T08:04:19;9.40;;;7.05;;
39738;SDS011;25422;48.286;8.484;2022-11-20T08:06:45;11.00;;;8.43;;
39738;SDS011;25422;48.286;8.484;2022-11-20T08:09:10;8.65;;;6.22;;
39738;SDS011;25422;48.286;8.484;2022-11-20T08:11:36;3.80;;;3.40;;
39738;SDS011;25422;48.286;8.484;2022-11-20T08:14:20;7.63;;;4.28;;
39738;SDS011;25422;48.286;8.484;2022-11-20T08:16:46;11.55;;;8.43;;
39738;SDS011;25422;48.286;8.484;2022-11-20T08:19:14;4.10;;;3.35;;
39738;SDS011;25422;48.286;8.484;2022-11-20T08:21:40;3.75;;;3.00;;
39738;SDS011;25422;48.286;8.484;2022-11-20T08:24:06;4.35;;;3.47;;
39738;SDS011;25422;48.286;8.484;2022-11-20T08:26:33;3.72;;;3.13;;
39738;SDS011;25422;48.286;8.484;2022-11-20T08:29:00;3.47;;;3.15;;
39738;SDS011;25422;48.286;8.484;2022-11-20T08:31:26;3.60;;;3.10;;
39738;SDS011;25422;48.286;8.484;2022-11-20T08:33:52;3.03;;;2.67;;
39738;SDS011;25422;48.286;8.484;2022-11-20T08:36:18;3.28;;;2.97;;
39738;SDS011;25422;48.286;8.484;2022-11-20T08:38:47;3.10;;;2.90;;
39738;SDS011;25422;48.286;8.484;2022-11-20T08:46:23;7.57;;;5.78;;
39738;SDS011;25422;48.286;8.484;2022-11-20T08:48:50;3.65;;;3.13;;
39738;SDS011;25422;48.286;8.484;2022-11-20T08:51:15;3.58;;;2.70;;
39738;SDS011;25422;48.286;8.484;2022-11-20T08:53:41;3.08;;;2.78;;
39738;SDS011;25422;48.286;8.484;2022-11-20T08:56:07;4.60;;;3.13;;
39738;SDS011;25422;48.286;8.484;2022-11-20T08:58:34;5.05;;;3.28;;
39738;SDS011;25422;48.286;8.484;2022-11-20T09:01:00;3.75;;;3.40;;
39738;SDS011;25422;48.286;8.484;2022-11-20T09:03:26;5.43;;;4.93;;
39738;SDS011;25422;48.286;8.484;2022-11-20T09:05:59;4.07;;;3.55;;
39738;SDS011;25422;48.286;8.484;2022-11-20T09:08:25;4.15;;;3.55;;
39738;SDS011;25422;48.286;8.484;2022-11-20T09:10:51;2.72;;;2.53;;
39738;SDS011;25422;48.286;8.484;2022-11-20T09:13:18;4.30;;;3.90;;
39738;SDS011;25422;48.286;8.484;2022-11-20T09:15:43;7.70;;;5.95;;
39738;SDS011;25422;48.286;8.484;2022-11-20T09:18:09;7.50;;;5.60;;
39738;SDS011;25422;48.286;8.484;2022-11-20T09:20:34;4.30;;;3.90;;
39738;SDS011;25422;48.286;8.484;2022-11-20T09:23:00;4.80;;;4.30;;
39738;SDS011;25422;48.286;8.484;2022-11-20T09:25:25;8.98;;;5.55;;
39738;SDS011;25422;48.286;8.484;2022-11-20T09:27:55;5.35;;;4.85;;
39738;SDS011;25422;48.286;8.484;2022-11-20T09:30:23;11.25;;;7.70;;
39738;SDS011;25422;48.286;8.484;2022-11-20T09:32:49;13.40;;;7.55;;
39738;SDS011;25422;48.286;8.484;2022-11-20T09:35:14;13.23;;;7.72;;
39738;SDS011;25422;48.286;8.484;2022-11-20T09:37:40;24.95;;;13.02;;
39738;SDS011;25422;48.286;8.484;2022-11-20T09:40:05;20.45;;;9.45;;
39738;SDS011;25422;48.286;8.484;2022-11-20T09:45:23;13.32;;;7.60;;
39738;SDS011;25422;48.286;8.484;2022-11-20T09:50:46;6.50;;;4.43;;
39738;SDS011;25422;48.286;8.484;2022-11-20T09:56:50;9.93;;;5.75;;
39738;SDS011;25422;48.286;8.484;2022-11-20T09:59:33;4.32;;;2.45;;
39738;SDS011;25422;48.286;8.484;2022-11-20T10:01:59;8.07;;;4.63;;
39738;SDS011;25422;48.286;8.484;2022-11-20T10:04:28;2.67;;;2.38;;
39738;SDS011;25422;48.286;8.484;2022-11-20T10:07:02;20.37;;;10.80;;
39738;SDS011;25422;48.286;8.484;2022-11-20T10:09:36;25.20;;;16.90;;
39738;SDS011;25422;48.286;8.484;2022-11-20T10:14:58;6.90;;;5.25;;
39738;SDS011;25422;48.286;8.484;2022-11-20T10:20:17;6.80;;;5.28;;
39738;SDS011;25422;48.286;8.484;2022-11-20T10:25:33;3.55;;;2.80;;
39738;SDS011;25422;48.286;8.484;2022-11-20T10:30:45;5.97;;;3.92;;
39738;SDS011;25422;48.286;8.484;2022-11-20T10:33:22;14.18;;;8.23;;
39738;SDS011;25422;48.286;8.484;2022-11-20T10:35:52;8.10;;;5.90;;
39738;SDS011;25422;48.286;8.484;2022-11-20T10:38:37;22.98;;;14.93;;
39738;SDS011;25422;48.286;8.484;2022-11-20T10:41:07;15.70;;;8.25;;
39738;SDS011;25422;48.286;8.484;2022-11-20T10:43:52;5.78;;;3.65;;
39738;SDS011;25422;48.286;8.484;2022-11-20T10:46:23;5.20;;;2.78;;
39738;SDS011;25422;48.286;8.484;2022-11-20T10:48:50;6.22;;;4.68;;
39738;SDS011;25422;48.286;8.484;2022-11-20T10:59:50;5.20;;;4.00;;
39738;SDS011;25422;48.286;8.484;2022-11-20T11:02:38;10.07;;;3.92;;
39738;SDS011;25422;48.286;8.484;2022-11-20T11:07:46;6.30;;;3.60;;
39738;SDS011;25422;48.286;8.484;2022-11-20T11:10:16;5.38;;;2.70;;
39738;SDS011;25422;48.286;8.484;2022-11-20T11:12:45;3.75;;;2.65;;
39738;SDS011;25422;48.286;8.484;2022-11-20T11:15:26;5.85;;;2.33;;
39738;SDS011;25422;48.286;8.484;2022-11-20T11:18:02;5.05;;;3.45;;
39738;SDS011;25422;48.286;8.484;2022-11-20T11:20:28;3.92;;;2.70;;
39738;SDS011;25422;48.286;8.484;2022-11-20T11:22:55;4.00;;;2.35;;
39738;SDS011;25422;48.286;8.484;2022-11-20T11:25:32;3.35;;;2.38;;
39738;SDS011;25422;48.286;8.484;2022-11-20T11:28:42;7.95;;;3.00;;
39738;SDS011;25422;48.286;8.484;2022-11-20T11:30:51;4.18;;;2.15;;
39738;SDS011;25422;48.286;8.484;2022-11-20T11:33:20;2.97;;;2.33;;
39738;SDS011;25422;48.286;8.484;2022-11-20T11:35:58;3.67;;;2.38;;
39738;SDS011;25422;48.286;8.484;2022-11-20T11:38:29;3.40;;;2.45;;
39738;SDS011;25422;48.286;8.484;2022-11-20T11:40:59;2.08;;;1.95;;
39738;SDS011;25422;48.286;8.484;2022-11-20T11:43:26;2.33;;;2.13;;
39738;SDS011;25422;48.286;8.484;2022-11-20T11:48:55;2.97;;;2.00;;
39738;SDS011;25422;48.286;8.484;2022-11-20T11:51:29;4.45;;;2.13;;
39738;SDS011;25422;48.286;8.484;2022-11-20T11:54:19;4.22;;;2.70;;
39738;SDS011;25422;48.286;8.484;2022-11-20T11:56:51;3.83;;;2.08;;
39738;SDS011;25422;48.286;8.484;2022-11-20T11:59:28;9.32;;;5.43;;
39738;SDS011;25422;48.286;8.484;2022-11-20T12:05:04;3.45;;;1.77;;
39738;SDS011;25422;48.286;8.484;2022-11-20T12:07:59;5.20;;;2.00;;
39738;SDS011;25422;48.286;8.484;2022-11-20T12:10:41;4.13;;;2.63;;
39738;SDS011;25422;48.286;8.484;2022-11-20T12:16:07;2.20;;;1.58;;
39738;SDS011;25422;48.286;8.484;2022-11-20T12:18:37;2.60;;;2.03;;
39738;SDS011;25422;48.286;8.484;2022-11-20T12:21:47;2.35;;;1.90;;
39738;SDS011;25422;48.286;8.484;2022-11-20T12:24:32;5.93;;;2.13;;
39738;SDS011;25422;48.286;8.484;2022-11-20T12:30:10;5.85;;;2.88;;
39738;SDS011;25422;48.286;8.484;2022-11-20T12:35:27;2.60;;;2.33;;
39738;SDS011;25422;48.286;8.484;2022-11-20T12:43:25;2.58;;;1.83;;
39738;SDS011;25422;48.286;8.484;2022-11-20T12:46:18;2.50;;;1.70;;
39738;SDS011;25422;48.286;8.484;2022-11-20T13:00:00;2.00;;;1.90;;
39738;SDS011;25422;48.286;8.484;2022-11-20T13:06:19;4.50;;;3.35;;
39738;SDS011;25422;48.286;8.484;2022-11-20T13:08:38;8.95;;;5.03;;
39738;SDS011;25422;48.286;8.484;2022-11-20T13:11:17;8.48;;;5.13;;
39738;SDS011;25422;48.286;8.484;2022-11-20T13:16:37;4.43;;;2.70;;
39738;SDS011;25422;48.286;8.484;2022-11-20T13:19:09;2.40;;;2.20;;
39738;SDS011;25422;48.286;8.484;2022-11-20T13:21:41;2.45;;;2.20;;
39738;SDS011;25422;48.286;8.484;2022-11-20T13:26:44;3.30;;;2.63;;
39738;SDS011;25422;48.286;8.484;2022-11-20T13:29:19;3.35;;;2.65;;
39738;SDS011;25422;48.286;8.484;2022-11-20T13:31:45;3.15;;;2.47;;
39738;SDS011;25422;48.286;8.484;2022-11-20T13:34:13;11.90;;;5.97;;
39738;SDS011;25422;48.286;8.484;2022-11-20T13:36:52;10.45;;;5.60;;
39738;SDS011;25422;48.286;8.484;2022-11-20T13:42:02;11.05;;;6.90;;
39738;SDS011;25422;48.286;8.484;2022-11-20T13:44:51;28.33;;;15.77;;
39738;SDS011;25422;48.286;8.484;2022-11-20T13:47:26;9.43;;;5.10;;
39738;SDS011;25422;48.286;8.484;2022-11-20T13:49:53;2.78;;;1.85;;
39738;SDS011;25422;48.286;8.484;2022-11-20T13:54:55;5.05;;;2.63;;
39738;SDS011;25422;48.286;8.484;2022-11-20T14:00:22;1.63;;;1.52;;
39738;SDS011;25422;48.286;8.484;2022-11-20T14:05:38;1.73;;;1.30;;
39738;SDS011;25422;48.286;8.484;2022-11-20T14:08:14;2.83;;;1.73;;
39738;SDS011;25422;48.286;8.484;2022-11-20T14:10:48;4.28;;;1.45;;
39738;SDS011;25422;48.286;8.484;2022-11-20T14:13:17;1.95;;;1.50;;
39738;SDS011;25422;48.286;8.484;2022-11-20T14:15:44;1.42;;;1.33;;
39738;SDS011;25422;48.286;8.484;2022-11-20T14:18:13;1.60;;;1.35;;
39738;SDS011;25422;48.286;8.484;2022-11-20T14:20:50;2.90;;;2.58;;
39738;SDS011;25422;48.286;8.484;2022-11-20T14:23:25;5.43;;;2.40;;
39738;SDS011;25422;48.286;8.484;2022-11-20T14:25:52;2.95;;;2.20;;
39738;SDS011;25422;48.286;8.484;2022-11-20T14:28:24;6.75;;;3.83;;
39738;SDS011;25422;48.286;8.484;2022-11-20T14:30:52;1.90;;;1.60;;
39738;SDS011;25422;48.286;8.484;2022-11-20T14:33:17;2.50;;;1.95;;
39738;SDS011;25422;48.286;8.484;2022-11-20T14:38:13;3.15;;;1.58;;
39738;SDS011;25422;48.286;8.484;2022-11-20T14:40:40;8.13;;;4.35;;
39738;SDS011;25422;48.286;8.484;2022-11-20T14:43:24;9.10;;;4.63;;
39738;SDS011;25422;48.286;8.484;2022-11-20T14:48:38;3.40;;;2.60;;
39738;SDS011;25422;48.286;8.484;2022-11-20T14:51:04;9.85;;;6.93;;
39738;SDS011;25422;48.286;8.484;2022-11-20T14:53:29;9.07;;;5.25;;
39738;SDS011;25422;48.286;8.484;2022-11-20T14:55:56;7.35;;;5.55;;
39738;SDS011;25422;48.286;8.484;2022-11-20T14:58:24;5.93;;;4.15;;
39738;SDS011;25422;48.286;8.484;2022-11-20T15:00:56;6.57;;;5.00;;
39738;SDS011;25422;48.286;8.484;2022-11-20T15:06:01;3.75;;;2.92;;
39738;SDS011;25422;48.286;8.484;2022-11-20T15:08:28;1.70;;;1.60;;
39738;SDS011;25422;48.286;8.484;2022-11-20T15:10:53;6.05;;;2.45;;
39738;SDS011;25422;48.286;8.484;2022-11-20T15:15:54;3.30;;;1.80;;
39738;SDS011;25422;48.286;8.484;2022-11-20T15:18:31;2.75;;;1.50;;
39738;SDS011;25422;48.286;8.484;2022-11-20T15:21:02;2.08;;;1.80;;
39738;SDS011;25422;48.286;8.484;2022-11-20T15:23:32;3.53;;;1.70;;
39738;SDS011;25422;48.286;8.484;2022-11-20T15:25:59;3.30;;;1.63;;
39738;SDS011;25422;48.286;8.484;2022-11-20T15:30:59;2.78;;;1.95;;
39738;SDS011;25422;48.286;8.484;2022-11-20T15:33:25;2.85;;;2.15;;
39738;SDS011;25422;48.286;8.484;2022-11-20T15:35:50;2.85;;;1.90;;
39738;SDS011;25422;48.286;8.484;2022-11-20T15:38:16;3.33;;;2.33;;
39738;SDS011;25422;48.286;8.484;2022-11-20T15:40:41;3.35;;;2.17;;
39738;SDS011;25422;48.286;8.484;2022-11-20T15:43:07;8.38;;;2.40;;
39738;SDS011;25422;48.286;8.484;2022-11-20T15:48:09;2.97;;;2.13;;
39738;SDS011;25422;48.286;8.484;2022-11-20T15:50:43;4.40;;;2.28;;
39738;SDS011;25422;48.286;8.484;2022-11-20T15:53:31;4.47;;;2.40;;
39738;SDS011;25422;48.286;8.484;2022-11-20T15:55:57;3.53;;;2.70;;
39738;SDS011;25422;48.286;8.484;2022-11-20T15:58:22;3.03;;;2.28;;
39738;SDS011;25422;48.286;8.484;2022-11-20T16:00:49;4.82;;;2.97;;
39738;SDS011;25422;48.286;8.484;2022-11-20T16:03:16;4.45;;;2.10;;
39738;SDS011;25422;48.286;8.484;2022-11-20T16:05:41;2.45;;;2.00;;
39738;SDS011;25422;48.286;8.484;2022-11-20T16:08:07;6.10;;;2.58;;
39738;SDS011;25422;48.286;8.484;2022-11-20T16:10:33;3.22;;;2.55;;
39738;SDS011;25422;48.286;8.484;2022-11-20T16:12:58;4.25;;;2.58;;
39738;SDS011;25422;48.286;8.484;2022-11-20T16:15:44;2.83;;;2.40;;
39738;SDS011;25422;48.286;8.484;2022-11-20T16:18:17;2.90;;;2.05;;
39738;SDS011;25422;48.286;8.484;2022-11-20T16:20:45;4.25;;;3.13;;
39738;SDS011;25422;48.286;8.484;2022-11-20T16:23:12;6.00;;;2.60;;
39738;SDS011;25422;48.286;8.484;2022-11-20T16:25:38;4.00;;;2.35;;
39738;SDS011;25422;48.286;8.484;2022-11-20T16:28:03;4.75;;;3.17;;
39738;SDS011;25422;48.286;8.484;2022-11-20T16:30:30;6.70;;;5.47;;
39738;SDS011;25422;48.286;8.484;2022-11-20T16:32:57;8.30;;;6.07;;
39738;SDS011;25422;48.286;8.484;2022-11-20T16:35:22;4.65;;;3.42;;
39738;SDS011;25422;48.286;8.484;2022-11-20T16:37:47;3.30;;;2.80;;
39738;SDS011;25422;48.286;8.484;2022-11-20T16:40:13;4.25;;;2.90;;
39738;SDS011;25422;48.286;8.484;2022-11-20T16:42:38;4.15;;;2.80;;
39738;SDS011;25422;48.286;8.484;2022-11-20T16:45:04;4.30;;;2.65;;
39738;SDS011;25422;48.286;8.484;2022-11-20T16:47:33;3.17;;;2.17;;
39738;SDS011;25422;48.286;8.484;2022-11-20T16:49:59;4.63;;;3.47;;
39738;SDS011;25422;48.286;8.484;2022-11-20T16:52:25;3.53;;;3.13;;